createdAt,value
2022-12-14T00:01:49.341Z,69.43
2022-12-14T00:05:53.551Z,68.87
2022-12-14T00:09:57.033Z,70.07
2022-12-14T00:14:02.401Z,69.42
2022-12-14T00:18:08.371Z,69.90
2022-12-14T00:22:11.985Z,69.44
2022-12-14T00:26:17.963Z,70.22
2022-12-14T00:30:23.050Z,69.88
2022-12-14T00:34:28.076Z,69.31
2022-12-14T00:38:31.454Z,70.26
2022-12-14T00:42:35.139Z,69.50
2022-12-14T00:46:38.948Z,69.40
2022-12-14T00:50:48.619Z,69.05
2022-12-14T00:54:52.017Z,69.74
2022-12-14T00:58:55.934Z,69.43
2022-12-14T01:02:59.324Z,69.08
2022-12-14T01:07:04.335Z,70.16
2022-12-14T01:11:08.454Z,69.05
2022-12-14T01:15:12.683Z,69.13
2022-12-14T01:19:17.072Z,69.71
2022-12-14T01:23:22.022Z,70.24
2022-12-14T01:27:25.991Z,69.33
2022-12-14T01:31:33.572Z,69.41
2022-12-14T01:35:36.929Z,69.04
2022-12-14T01:39:41.465Z,69.40
2022-12-14T01:43:48.961Z,69.31
2022-12-14T01:47:56.622Z,69.42
2022-12-14T01:52:08.350Z,68.96
2022-12-14T01:56:13.587Z,69.99
2022-12-14T02:00:18.788Z,70.84
2022-12-14T02:04:23.340Z,70.28
2022-12-14T02:08:27.280Z,71.74
2022-12-14T02:12:36.929Z,71.50
2022-12-14T02:16:41.134Z,71.86
2022-12-14T02:20:53.177Z,70.84
2022-12-14T02:25:18.771Z,71.01
2022-12-14T02:30:00.343Z,70.79
2022-12-14T04:15:18.232Z,68.89
2022-12-14T04:19:28.748Z,69.45
2022-12-14T04:23:58.415Z,69.42
2022-12-14T04:28:07.362Z,69.20
2022-12-14T04:32:17.281Z,69.00
2022-12-14T04:36:29.544Z,68.76
2022-12-14T04:40:35.089Z,69.52
2022-12-14T04:44:42.236Z,69.33
2022-12-14T04:48:50.386Z,69.01
2022-12-14T04:52:59.748Z,68.98
2022-12-14T04:57:12.244Z,69.16
2022-12-14T05:01:36.010Z,68.57
2022-12-14T05:05:49.194Z,69.22
2022-12-14T05:09:58.772Z,69.32
2022-12-14T05:14:04.890Z,69.24
2022-12-14T05:18:10.918Z,69.27
2022-12-14T05:22:14.485Z,69.37
2022-12-14T05:26:19.532Z,69.03
2022-12-14T05:30:23.501Z,69.18
2022-12-14T05:34:26.640Z,68.51
2022-12-14T05:38:30.104Z,68.34
2022-12-14T05:42:38.225Z,68.05
2022-12-14T05:46:46.030Z,68.08
2022-12-14T05:50:49.108Z,68.21
2022-12-14T05:54:52.578Z,68.52
2022-12-14T05:58:57.610Z,68.79
2022-12-14T06:03:01.085Z,69.39
2022-12-14T06:07:04.844Z,69.03
2022-12-14T06:11:10.429Z,69.46
2022-12-14T06:15:18.107Z,69.39
2022-12-14T06:19:22.515Z,69.16
2022-12-14T06:23:25.865Z,69.79
2022-12-14T06:27:29.734Z,69.31
2022-12-14T06:31:35.627Z,69.24
2022-12-14T06:35:38.964Z,69.17
2022-12-14T06:39:42.118Z,68.71
2022-12-14T06:43:49.324Z,69.13
2022-12-14T06:47:55.504Z,68.60
2022-12-14T06:51:59.042Z,69.17
2022-12-14T06:56:10.306Z,68.77
2022-12-14T07:00:14.379Z,68.74
2022-12-14T07:04:21.892Z,69.08
2022-12-14T07:08:26.380Z,68.41
2022-12-14T07:12:30.208Z,69.01
2022-12-14T07:16:35.117Z,68.90
2022-12-14T07:20:39.834Z,68.68
2022-12-14T07:24:45.085Z,68.66
2022-12-14T07:28:49.281Z,68.58
2022-12-14T07:32:56.084Z,68.88
2022-12-14T07:37:05.536Z,68.78
2022-12-14T07:41:11.046Z,68.42
2022-12-14T07:45:16.339Z,68.94
2022-12-14T07:49:21.155Z,68.63
2022-12-14T07:53:29.235Z,68.66
2022-12-14T07:57:35.097Z,68.28
2022-12-14T08:01:39.975Z,68.78
2022-12-14T08:05:48.844Z,68.52
2022-12-14T08:10:01.327Z,68.36
2022-12-14T08:14:07.361Z,68.28
2022-12-14T08:18:11.472Z,68.43
2022-12-14T08:22:15.103Z,68.12
2022-12-14T08:26:20.685Z,67.86
2022-12-14T08:30:24.417Z,68.37
2022-12-14T08:34:28.094Z,67.94
2022-12-14T08:38:31.737Z,68.28
2022-12-14T08:42:37.079Z,68.22
2022-12-14T08:46:45.808Z,68.23
2022-12-14T08:50:50.140Z,67.81
2022-12-14T08:54:53.731Z,68.23
2022-12-14T08:58:59.266Z,67.96
2022-12-14T09:03:02.625Z,67.76
2022-12-14T09:07:05.873Z,67.74
2022-12-14T09:11:14.115Z,67.53
2022-12-14T09:15:19.202Z,67.33
2022-12-14T09:19:22.771Z,67.10
2022-12-14T09:23:28.019Z,66.93
2022-12-14T09:27:32.206Z,66.84
2022-12-14T09:31:37.437Z,66.79
2022-12-14T09:35:40.786Z,66.57
2022-12-14T09:39:44.435Z,66.39
2022-12-14T09:43:54.474Z,66.83
2022-12-14T09:48:06.412Z,66.02
2022-12-14T09:52:17.200Z,65.51
2022-12-14T09:56:22.780Z,65.54
2022-12-14T10:00:28.099Z,65.39
2022-12-14T10:04:47.728Z,66.12
2022-12-14T10:08:58.206Z,66.44
2022-12-14T10:13:14.314Z,65.40
2022-12-14T10:17:26.871Z,65.00
2022-12-14T10:21:44.167Z,64.87
2022-12-14T10:25:50.697Z,64.31
2022-12-14T10:30:01.831Z,64.55
2022-12-14T10:34:19.521Z,65.24
2022-12-14T10:38:29.773Z,64.29
2022-12-14T10:42:42.913Z,63.41
2022-12-14T10:47:01.068Z,63.58
2022-12-14T10:51:09.410Z,62.01
2022-12-14T10:55:19.298Z,62.32
2022-12-14T10:59:36.711Z,62.82
2022-12-14T11:03:44.428Z,62.23
2022-12-14T11:07:50.017Z,63.19
2022-12-14T11:12:01.393Z,62.76
2022-12-14T11:16:20.051Z,63.50
2022-12-14T11:20:25.990Z,63.08
2022-12-14T11:24:30.738Z,62.79
2022-12-14T11:28:38.993Z,62.80
2022-12-14T11:32:42.889Z,61.86
2022-12-14T11:36:46.600Z,62.08
2022-12-14T11:40:49.846Z,62.24
2022-12-14T11:44:55.640Z,62.11
2022-12-14T11:48:58.849Z,62.24
2022-12-14T11:53:11.241Z,62.54
2022-12-14T11:57:29.878Z,63.40
2022-12-14T12:01:35.232Z,62.16
2022-12-14T12:05:44.145Z,62.24
2022-12-14T12:09:47.627Z,62.35
2022-12-14T12:26:50.002Z,61.36
2022-12-14T12:31:00.657Z,62.53
2022-12-14T12:35:15.810Z,62.58
2022-12-14T12:39:25.803Z,61.66
2022-12-14T12:43:35.698Z,61.85
2022-12-14T12:47:47.760Z,62.11
2022-12-14T12:51:56.808Z,61.43
2022-12-14T12:56:08.521Z,62.70
2022-12-14T13:00:20.377Z,62.62
2022-12-14T13:04:33.128Z,62.52
2022-12-14T13:08:41.886Z,62.77
2022-12-14T13:12:49.028Z,63.73
2022-12-14T13:16:56.527Z,62.61
2022-12-14T13:21:07.921Z,62.93
2022-12-14T13:25:19.727Z,63.44
2022-12-14T13:29:35.689Z,62.86
2022-12-14T13:34:09.426Z,64.20
2022-12-14T13:38:32.927Z,64.91
2022-12-14T13:42:51.838Z,62.12
2022-12-14T13:47:01.344Z,63.57
2022-12-14T13:51:08.567Z,64.18
2022-12-14T13:55:29.465Z,64.00
2022-12-14T13:59:37.191Z,64.38
2022-12-14T14:03:54.926Z,65.25
2022-12-14T14:08:03.831Z,64.98
2022-12-14T14:12:36.534Z,65.81
2022-12-14T14:16:45.489Z,64.90
2022-12-14T14:20:58.611Z,65.05
2022-12-14T14:25:12.995Z,65.93
2022-12-14T14:29:23.582Z,65.85
2022-12-14T14:33:45.410Z,66.07
2022-12-14T14:37:59.086Z,66.70
2022-12-14T14:42:10.090Z,66.48
2022-12-14T14:46:19.190Z,66.66
2022-12-14T14:50:31.239Z,66.47
2022-12-14T14:59:41.891Z,66.45
2022-12-14T15:03:54.540Z,66.59
2022-12-14T15:08:00.140Z,67.83
2022-12-14T15:12:19.728Z,66.46
2022-12-14T15:16:31.734Z,66.55
2022-12-14T15:24:55.200Z,66.49
2022-12-14T15:29:01.232Z,66.54
2022-12-14T15:33:09.590Z,66.52
2022-12-14T15:37:27.682Z,67.40
2022-12-14T15:41:33.704Z,67.06
2022-12-14T15:45:50.330Z,67.69
2022-12-14T15:50:00.446Z,67.56
2022-12-14T15:54:14.511Z,67.42
2022-12-14T15:58:53.090Z,68.07
2022-12-14T16:02:58.142Z,67.69
2022-12-14T16:07:09.911Z,67.76
2022-12-14T16:11:22.223Z,67.83
2022-12-14T16:15:28.489Z,68.06
2022-12-14T16:19:57.554Z,68.27
2022-12-14T16:24:01.278Z,67.87
2022-12-14T16:28:28.953Z,68.42
2022-12-14T16:32:32.607Z,68.30
2022-12-14T16:36:37.980Z,68.77
2022-12-14T16:40:45.573Z,68.52
2022-12-14T16:44:49.960Z,68.55
2022-12-14T16:49:32.872Z,68.59
2022-12-14T16:53:36.072Z,69.38
2022-12-14T16:57:43.444Z,68.69
2022-12-14T17:01:49.821Z,69.00
2022-12-14T17:05:57.165Z,69.21
2022-12-14T17:10:00.374Z,69.36
2022-12-14T17:14:05.348Z,69.25
2022-12-14T17:18:08.984Z,69.45
2022-12-14T17:22:20.221Z,68.62
2022-12-14T17:26:29.418Z,69.31
2022-12-14T17:30:35.026Z,69.10
2022-12-14T17:34:41.719Z,68.82
2022-12-14T17:38:45.199Z,69.11
2022-12-14T17:42:54.005Z,69.44
2022-12-14T17:46:59.288Z,69.63
2022-12-14T17:51:03.331Z,69.46
2022-12-14T17:55:07.149Z,69.61
2022-12-14T17:59:11.072Z,69.42
2022-12-14T18:03:17.753Z,69.16
2022-12-14T18:07:21.429Z,69.00
2022-12-14T18:12:21.543Z,69.26
2022-12-14T18:16:21.362Z,68.82
2022-12-14T18:20:27.152Z,69.15
2022-12-14T18:24:30.697Z,69.53
2022-12-14T18:28:36.998Z,69.05
2022-12-14T18:32:46.675Z,69.06
2022-12-14T18:36:51.781Z,68.93
2022-12-14T18:40:57.143Z,69.61
2022-12-14T18:45:00.602Z,70.07
2022-12-14T18:49:04.123Z,70.19
2022-12-14T18:53:09.621Z,70.50
2022-12-14T18:57:13.109Z,70.41
2022-12-14T19:01:19.757Z,70.16
2022-12-14T19:05:26.240Z,70.09
2022-12-14T19:09:31.825Z,70.50
2022-12-14T19:13:35.318Z,69.95
2022-12-14T19:17:39.282Z,70.49
2022-12-14T19:21:43.552Z,70.45
2022-12-14T19:25:48.994Z,69.99
2022-12-14T19:29:55.519Z,70.46
2022-12-14T19:34:00.426Z,70.16
2022-12-14T19:38:05.468Z,70.50
2022-12-14T19:42:12.990Z,70.04
2022-12-14T19:46:18.399Z,70.65
2022-12-14T19:50:23.901Z,70.67
2022-12-14T19:54:29.049Z,71.07
2022-12-14T19:58:34.235Z,70.96
2022-12-14T20:02:38.318Z,70.73
2022-12-14T20:06:42.793Z,70.83
2022-12-14T20:10:46.275Z,70.89
2022-12-14T20:14:51.095Z,70.98
2022-12-14T20:18:55.246Z,71.22
2022-12-14T20:22:58.409Z,70.90
2022-12-14T20:27:03.225Z,70.96
2022-12-14T20:31:09.591Z,71.09
2022-12-14T20:35:18.615Z,71.25
2022-12-14T20:39:22.172Z,71.14
2022-12-14T20:43:25.463Z,71.70
2022-12-14T20:47:30.463Z,71.37
2022-12-14T20:51:36.052Z,71.92
2022-12-14T20:55:39.721Z,71.18
2022-12-14T20:59:45.756Z,71.37
2022-12-14T21:03:52.331Z,71.64
2022-12-14T21:07:55.652Z,71.44
2022-12-14T21:12:16.816Z,71.72
2022-12-14T21:16:21.190Z,71.86
2022-12-14T21:20:26.979Z,71.53
2022-12-14T21:25:01.151Z,71.94
2022-12-14T21:28:55.547Z,71.74
2022-12-14T21:33:00.223Z,71.76
2022-12-14T21:37:05.086Z,71.89
2022-12-14T21:41:25.724Z,72.34
2022-12-14T21:45:29.049Z,72.25
2022-12-14T21:49:33.237Z,72.10
2022-12-14T21:53:39.605Z,72.36
2022-12-14T21:58:00.379Z,72.52
2022-12-14T22:02:06.677Z,72.62
2022-12-14T22:06:10.737Z,72.59
2022-12-14T22:10:18.783Z,72.82
2022-12-14T22:14:26.564Z,72.90
2022-12-14T22:18:30.433Z,72.95
2022-12-14T22:22:34.261Z,72.91
2022-12-14T22:26:39.510Z,72.79
2022-12-14T22:30:43.124Z,72.57
2022-12-14T22:34:47.080Z,72.96
2022-12-14T22:38:51.141Z,72.92
2022-12-14T22:42:56.401Z,72.77
2022-12-14T22:47:00.124Z,72.91
2022-12-14T22:51:05.436Z,73.07
2022-12-14T22:55:09.793Z,73.27
2022-12-14T22:59:17.398Z,73.30
2022-12-14T23:03:23.224Z,73.11
2022-12-14T23:07:47.379Z,73.00
2022-12-14T23:16:54.787Z,73.49
2022-12-14T23:21:16.126Z,73.26
2022-12-14T23:25:36.931Z,73.17
2022-12-14T23:29:57.674Z,73.69
2022-12-14T23:34:19.946Z,73.61
2022-12-14T23:38:40.195Z,73.28
2022-12-14T23:43:00.478Z,73.46
2022-12-14T23:47:20.702Z,73.25
2022-12-14T23:51:43.092Z,73.47
2022-12-14T23:56:03.755Z,72.77
